Time;durP1;ratioP1;P1;durP2;ratioP2;P2;SDS_P1;SDS_P2;PMS_P1;PMS_P2;Temp;Humidity;BMP_temperature;BMP_pressure;BME280_temperature;BME280_humidity;BME280_pressure;Samples;Min_cycle;Max_cycle;Signal;HPM_P1;HPM_P2
2021/08/14 00:02:28;;;;;;;;;;;;;;;21.28;66.28;102105.73;1763457;80;20324;-70
2021/08/14 00:05:00;;;;;;;;;;;;;;;21.26;66.39;102102.38;1729688;81;20186;-70
2021/08/14 00:07:32;;;;;;;;;;;;;;;21.25;66.47;102109.17;1763649;81;20279;-69
2021/08/14 00:10:06;;;;;;;;;;;;;;;21.22;66.50;102108.92;1752583;77;20243;-68
2021/08/14 00:12:37;;;;;;;;;;;;;;;21.18;66.71;102117.71;1847728;77;20516;-70
2021/08/14 00:15:10;;;;;;;;;;;;;;;21.15;66.99;102114.91;1849312;77;20189;-70
2021/08/14 00:17:42;;;;;;;;;;;;;;;21.11;67.11;102116.66;1849675;77;20247;-70
2021/08/14 00:20:14;;;;;;;;;;;;;;;21.07;67.18;102116.96;1849299;77;20187;-69
2021/08/14 00:22:47;;;;;;;;;;;;;;;21.02;67.36;102115.59;1849275;77;20206;-70
2021/08/14 00:25:21;;;;;;;;;;;;;;;20.99;67.45;102115.34;1849406;77;20314;-69
2021/08/14 00:27:52;;;;;;;;;;;;;;;20.96;67.56;102118.77;1849529;77;20198;-70
2021/08/14 00:30:24;;;;;;;;;;;;;;;20.93;67.62;102120.75;1849635;77;20555;-71
2021/08/14 00:32:55;;;;;;;;;;;;;;;20.90;67.79;102117.95;1826131;77;20539;-71
2021/08/14 00:35:27;;;;;;;;;;;;;;;20.84;67.99;102112.61;1849536;77;20251;-70
2021/08/14 00:37:58;;;;;;;;;;;;;;;20.83;68.05;102122.20;1849839;77;20576;-69
2021/08/14 00:40:30;;;;;;;;;;;;;;;20.80;68.16;102119.98;1849381;77;20242;-70
2021/08/14 00:43:03;;;;;;;;;;;;;;;20.76;68.33;102119.72;1780963;79;20263;-70
2021/08/14 00:45:41;;;;;;;;;;;;;;;20.77;68.37;102121.95;1809361;79;20244;-69
2021/08/14 00:48:14;;;;;;;;;;;;;;;20.78;68.38;102124.50;1796655;79;20609;-71
2021/08/14 00:50:46;;;;;;;;;;;;;;;20.73;68.52;102120.88;1809147;79;20199;-71
2021/08/14 00:53:18;;;;;;;;;;;;;;;20.69;68.57;102127.68;1809326;79;20252;-73
2021/08/14 00:55:50;;;;;;;;;;;;;;;20.68;68.65;102124.59;1809123;79;20743;-71
2021/08/14 00:58:22;;;;;;;;;;;;;;;20.63;68.73;102120.38;1809249;79;20543;-70
2021/08/14 01:00:56;;;;;;;;;;;;;;;20.58;68.93;102123.23;1790689;76;20371;-69
2021/08/14 01:03:27;;;;;;;;;;;;;;;20.55;69.04;102121.56;1814131;79;20640;-70
2021/08/14 01:05:59;;;;;;;;;;;;;;;20.56;69.04;102117.05;1813516;79;20191;-70
2021/08/14 01:08:31;;;;;;;;;;;;;;;20.57;69.01;102115.91;1813357;79;20605;-70
2021/08/14 01:11:04;;;;;;;;;;;;;;;20.58;69.15;102120.96;1813440;79;20200;-70
2021/08/14 01:13:36;;;;;;;;;;;;;;;20.55;69.20;102113.09;1810534;79;20227;-70
2021/08/14 01:16:08;;;;;;;;;;;;;;;20.51;69.45;102111.98;1813370;79;20255;-70
2021/08/14 01:18:42;;;;;;;;;;;;;;;20.48;69.54;102110.58;1813368;79;20283;-70
2021/08/14 01:21:23;;;;;;;;;;;;;;;20.46;69.58;102107.22;1813372;79;20255;-69
2021/08/14 01:23:55;;;;;;;;;;;;;;;20.45;69.80;102108.91;1813251;79;20188;-70
2021/08/14 01:26:26;;;;;;;;;;;;;;;20.41;70.13;102098.77;1813462;79;20196;-70
2021/08/14 01:28:58;;;;;;;;;;;;;;;20.40;70.10;102093.41;1813095;79;20279;-70
2021/08/14 01:31:30;;;;;;;;;;;;;;;20.46;70.14;102098.75;1813525;79;20260;-70
2021/08/14 01:34:01;;;;;;;;;;;;;;;20.50;70.02;102101.83;1813853;79;20192;-70
2021/08/14 01:36:33;;;;;;;;;;;;;;;20.48;70.10;102099.88;1812314;79;20625;-70
2021/08/14 01:39:05;;;;;;;;;;;;;;;20.48;70.18;102096.47;1813655;79;20256;-70
2021/08/14 01:41:36;;;;;;;;;;;;;;;20.46;70.23;102095.92;1813543;79;20557;-71
2021/08/14 01:44:09;;;;;;;;;;;;;;;20.41;70.37;102102.19;1813673;79;20545;-70
2021/08/14 01:46:41;;;;;;;;;;;;;;;20.39;70.62;102100.20;1813672;79;20251;-70
2021/08/14 01:49:12;;;;;;;;;;;;;;;20.36;70.88;102102.20;1813564;79;20256;-72
2021/08/14 01:51:46;;;;;;;;;;;;;;;20.35;70.98;102096.29;1813652;79;20280;-71
2021/08/14 01:54:18;;;;;;;;;;;;;;;20.43;70.89;102093.67;1813747;79;20204;-72
2021/08/14 01:56:51;;;;;;;;;;;;;;;20.43;70.87;102100.72;1812593;79;20244;-72
2021/08/14 01:59:23;;;;;;;;;;;;;;;20.42;70.93;102101.86;1813522;79;20326;-72
2021/08/14 02:01:55;;;;;;;;;;;;;;;20.43;71.07;102097.08;1807661;78;20541;-72
2021/08/14 02:04:27;;;;;;;;;;;;;;;20.40;71.18;102091.45;1805160;79;20256;-70
2021/08/14 02:06:59;;;;;;;;;;;;;;;20.39;71.17;102088.91;1805105;79;20208;-70
2021/08/14 02:09:32;;;;;;;;;;;;;;;20.41;71.20;102090.89;1804907;79;20212;-69
2021/08/14 02:12:05;;;;;;;;;;;;;;;20.44;71.19;102087.47;1804919;79;20260;-70
2021/08/14 02:14:38;;;;;;;;;;;;;;;20.46;71.16;102098.75;1804823;79;20298;-72
2021/08/14 02:17:11;;;;;;;;;;;;;;;20.44;71.15;102100.17;1804820;79;20707;-70
2021/08/14 02:19:45;;;;;;;;;;;;;;;20.41;71.29;102095.13;1804742;79;20260;-69
2021/08/14 02:22:16;;;;;;;;;;;;;;;20.36;71.45;102092.33;1804595;79;20601;-69
2021/08/14 02:24:48;;;;;;;;;;;;;;;20.37;71.60;102099.06;1804930;79;20247;-69
2021/08/14 02:27:20;;;;;;;;;;;;;;;20.40;71.55;102099.91;1804848;79;20193;-68
2021/08/14 02:29:52;;;;;;;;;;;;;;;20.42;71.56;102093.98;1804716;79;20227;-70
2021/08/14 02:32:23;;;;;;;;;;;;;;;20.45;71.42;102094.23;1804886;79;20192;-70
2021/08/14 02:34:55;;;;;;;;;;;;;;;20.47;71.29;102093.95;1804902;79;20323;-68
2021/08/14 02:37:27;;;;;;;;;;;;;;;20.44;71.32;102088.88;1804637;79;20549;-69
2021/08/14 02:39:59;;;;;;;;;;;;;;;20.38;71.53;102093.72;1804905;79;20280;-68
2021/08/14 02:42:32;;;;;;;;;;;;;;;20.32;71.78;102096.30;1804924;79;20287;-70
2021/08/14 02:45:05;;;;;;;;;;;;;;;20.28;72.03;102090.09;1804775;79;20264;-71
2021/08/14 02:47:37;;;;;;;;;;;;;;;20.23;72.10;102097.20;1804775;79;20605;-71
2021/08/14 02:50:10;;;;;;;;;;;;;;;20.20;72.13;102097.21;1804524;79;20252;-70
2021/08/14 02:52:43;;;;;;;;;;;;;;;20.20;72.25;102093.53;1804778;79;20236;-68
2021/08/14 02:55:14;;;;;;;;;;;;;;;20.19;72.30;102096.08;1804599;79;20251;-68
2021/08/14 02:57:46;;;;;;;;;;;;;;;20.17;72.31;102102.59;1804845;79;20288;-68
2021/08/14 03:00:18;;;;;;;;;;;;;;;20.14;72.41;102102.60;1804955;79;20188;-68
2021/08/14 03:02:50;;;;;;;;;;;;;;;20.10;72.53;102099.22;1804674;77;20291;-68
2021/08/14 03:05:22;;;;;;;;;;;;;;;20.09;72.58;102098.39;1780321;76;20540;-71
2021/08/14 03:07:54;;;;;;;;;;;;;;;20.15;72.51;102100.61;1775982;81;20545;-73
2021/08/14 03:10:26;;;;;;;;;;;;;;;20.25;72.43;102099.16;1776184;81;20215;-73
2021/08/14 03:12:58;;;;;;;;;;;;;;;20.36;72.17;102104.44;1776039;81;20239;-73
2021/08/14 03:15:30;;;;;;;;;;;;;;;20.38;71.91;102109.25;1776123;81;20203;-72
2021/08/14 03:18:02;;;;;;;;;;;;;;;20.37;71.83;102110.94;1776170;81;20255;-72
2021/08/14 03:20:35;;;;;;;;;;;;;;;20.32;71.84;102108.14;1776195;81;20541;-70
2021/08/14 03:23:07;;;;;;;;;;;;;;;20.32;72.00;102116.61;1776247;81;20219;-73
2021/08/14 03:25:39;;;;;;;;;;;;;;;20.31;72.08;102113.52;1776111;81;20195;-72
2021/08/14 03:28:11;;;;;;;;;;;;;;;20.38;72.10;102119.68;1774464;81;20258;-71
2021/08/14 03:30:42;;;;;;;;;;;;;;;20.47;71.88;102116.54;1774519;81;20196;-73
2021/08/14 03:33:14;;;;;;;;;;;;;;;20.52;71.82;102116.48;1775077;81;20184;-73
2021/08/14 03:35:45;;;;;;;;;;;;;;;20.57;71.75;102118.73;1776156;81;20247;-73
2021/08/14 03:38:17;;;;;;;;;;;;;;;20.58;71.60;102120.96;1784963;75;20271;-71
2021/08/14 03:40:49;;;;;;;;;;;;;;;20.55;71.59;102117.33;1827613;78;20247;-71
2021/08/14 03:43:21;;;;;;;;;;;;;;;20.56;71.42;102121.83;1827476;78;20640;-71
2021/08/14 03:45:53;;;;;;;;;;;;;;;20.55;71.34;102126.62;1827475;78;20624;-72
2021/08/14 03:48:25;;;;;;;;;;;;;;;20.51;71.43;102128.91;1827465;78;20203;-72
2021/08/14 03:50:57;;;;;;;;;;;;;;;20.50;71.60;102124.41;1827534;78;20251;-72
2021/08/14 03:53:28;;;;;;;;;;;;;;;20.50;71.68;102121.59;1827629;78;20180;-73
2021/08/14 03:55:59;;;;;;;;;;;;;;;20.56;71.66;102131.71;1827430;78;20219;-71
2021/08/14 03:58:34;;;;;;;;;;;;;;;20.62;71.57;102131.95;1827423;78;20524;-72
2021/08/14 04:01:07;;;;;;;;;;;;;;;20.63;71.63;102132.23;1816473;78;20250;-72
2021/08/14 04:03:40;;;;;;;;;;;;;;;20.64;71.59;102130.53;1795066;80;20250;-72
2021/08/14 04:06:12;;;;;;;;;;;;;;;20.65;71.59;102129.95;1795206;80;20499;-72
2021/08/14 04:08:44;;;;;;;;;;;;;;;20.68;71.65;102135.88;1795228;80;20254;-72
2021/08/14 04:11:15;;;;;;;;;;;;;;;20.70;71.71;102133.59;1795061;80;20340;-72
2021/08/14 04:13:47;;;;;;;;;;;;;;;20.76;71.52;102125.92;1795146;80;20289;-73
2021/08/14 04:16:18;;;;;;;;;;;;;;;20.85;71.22;102132.66;1795033;80;20182;-73
2021/08/14 04:18:50;;;;;;;;;;;;;;;20.90;70.71;102132.06;1795200;80;20221;-72
2021/08/14 04:21:22;;;;;;;;;;;;;;;20.96;70.44;102138.54;1795077;79;20221;-73
2021/08/14 04:23:55;;;;;;;;;;;;;;;21.03;70.32;102138.45;1795082;79;20186;-75
2021/08/14 04:26:29;;;;;;;;;;;;;;;21.17;69.92;102141.47;1795260;79;20305;-69
2021/08/14 04:28:59;;;;;;;;;;;;;;;21.34;69.03;102134.81;1801058;78;20609;-72
2021/08/14 04:31:31;;;;;;;;;;;;;;;21.60;68.38;102139.93;1824440;78;20180;-73
2021/08/14 04:34:02;;;;;;;;;;;;;;;21.85;67.28;102143.07;1827613;78;20554;-74
2021/08/14 04:36:36;;;;;;;;;;;;;;;22.05;66.56;102143.68;1827672;77;20196;-70
2021/08/14 04:39:09;;;;;;;;;;;;;;;22.33;65.73;102134.84;1824137;77;20232;-72
2021/08/14 04:41:41;;;;;;;;;;;;;;;22.79;64.89;102147.25;1824012;79;20192;-72
2021/08/14 04:44:12;;;;;;;;;;;;;;;23.31;62.54;102144.99;1824120;79;20260;-71
2021/08/14 04:46:44;;;;;;;;;;;;;;;23.86;60.86;102143.11;1824042;79;20220;-72
2021/08/14 04:49:16;;;;;;;;;;;;;;;24.44;58.60;102141.36;1824017;79;20181;-72
2021/08/14 04:51:47;;;;;;;;;;;;;;;24.91;56.86;102143.11;1824001;79;20248;-72
2021/08/14 04:54:18;;;;;;;;;;;;;;;25.37;55.64;102147.93;1822400;77;20312;-72
2021/08/14 04:56:51;;;;;;;;;;;;;;;25.78;54.03;102146.29;1823951;78;20220;-72
2021/08/14 04:59:23;;;;;;;;;;;;;;;26.14;52.98;102139.88;1824150;79;20530;-73
2021/08/14 05:01:54;;;;;;;;;;;;;;;26.50;51.59;102140.46;1824040;79;20277;-73
2021/08/14 05:04:26;;;;;;;;;;;;;;;26.80;50.42;102138.11;1823932;79;20176;-73
2021/08/14 05:07:00;;;;;;;;;;;;;;;27.09;49.06;102139.97;1826211;76;20282;-74
2021/08/14 05:09:37;;;;;;;;;;;;;;;27.31;48.67;102146.12;1842047;78;20552;-73
2021/08/14 05:12:09;;;;;;;;;;;;;;;27.60;47.52;102142.81;1842100;78;20274;-73
2021/08/14 05:14:41;;;;;;;;;;;;;;;27.83;47.05;102134.87;1841998;78;20258;-72
2021/08/14 05:17:13;;;;;;;;;;;;;;;28.04;46.36;102135.22;1839392;77;20250;-73
2021/08/14 05:19:46;;;;;;;;;;;;;;;28.23;45.89;102143.35;1841928;78;20340;-73
2021/08/14 05:22:18;;;;;;;;;;;;;;;28.42;45.42;102130.95;1842189;76;20544;-73
2021/08/14 05:24:49;;;;;;;;;;;;;;;28.65;45.23;102133.13;1842070;78;20257;-73
2021/08/14 05:27:22;;;;;;;;;;;;;;;28.91;45.32;102138.06;1842212;78;20202;-75
2021/08/14 05:29:54;;;;;;;;;;;;;;;29.17;43.97;102137.28;1842037;78;20253;-74
2021/08/14 05:32:26;;;;;;;;;;;;;;;29.31;43.14;102132.70;1841130;77;20264;-71
2021/08/14 05:34:58;;;;;;;;;;;;;;;29.51;42.45;102136.11;1838514;76;20250;-73
2021/08/14 05:37:31;;;;;;;;;;;;;;;29.48;41.48;102128.23;1808528;77;20253;-74
2021/08/14 05:40:02;;;;;;;;;;;;;;;29.29;42.23;102132.22;1776841;80;20593;-71
2021/08/14 05:42:34;;;;;;;;;;;;;;;29.14;42.51;102126.55;1772082;81;20579;-74
2021/08/14 05:45:06;;;;;;;;;;;;;;;29.16;43.57;102131.93;1775564;79;20573;-72
2021/08/14 05:47:38;;;;;;;;;;;;;;;29.30;43.16;102134.74;1773309;81;20273;-70
2021/08/14 05:50:10;;;;;;;;;;;;;;;29.40;42.80;102132.03;1773508;80;20261;-72
2021/08/14 05:52:42;;;;;;;;;;;;;;;29.45;42.34;102132.64;1778782;80;20291;-73
2021/08/14 05:55:13;;;;;;;;;;;;;;;29.51;42.38;102129.80;1779037;81;20188;-74
2021/08/14 05:57:45;;;;;;;;;;;;;;;29.58;41.89;102128.66;1778802;81;20291;-71
2021/08/14 06:00:17;;;;;;;;;;;;;;;29.66;41.86;102116.86;1778726;81;20302;-70
2021/08/14 06:02:50;;;;;;;;;;;;;;;29.71;41.60;102120.33;1778762;81;20260;-72
2021/08/14 06:05:22;;;;;;;;;;;;;;;29.78;42.09;102113.41;1778681;80;20612;-74
2021/08/14 06:07:54;;;;;;;;;;;;;;;29.90;42.30;102116.30;1779287;79;20219;-71
2021/08/14 06:10:26;;;;;;;;;;;;;;;30.03;40.22;102115.16;1774331;80;20325;-71
2021/08/14 06:12:59;;;;;;;;;;;;;;;30.07;40.01;102111.78;1783598;79;20538;-72
2021/08/14 06:15:30;;;;;;;;;;;;;;;30.14;40.44;102115.55;1811674;79;20531;-70
2021/08/14 06:18:02;;;;;;;;;;;;;;;30.29;40.20;102111.36;1779880;79;20215;-70
2021/08/14 06:20:35;;;;;;;;;;;;;;;30.46;40.51;102103.09;1778825;81;20222;-72
2021/08/14 06:23:06;;;;;;;;;;;;;;;30.64;38.78;102105.97;1777917;79;20176;-75
2021/08/14 06:25:38;;;;;;;;;;;;;;;30.72;38.88;102110.14;1781326;80;20300;-72
2021/08/14 06:28:09;;;;;;;;;;;;;;;30.80;39.46;102100.55;1787630;80;20284;-72
2021/08/14 06:30:43;;;;;;;;;;;;;;;30.86;37.81;102103.41;1787723;80;20256;-75
2021/08/14 06:33:15;;;;;;;;;;;;;;;30.72;37.30;102105.84;1781492;79;20192;-70
2021/08/14 06:35:47;;;;;;;;;;;;;;;30.40;37.82;102102.52;1775947;77;20186;-74
2021/08/14 06:38:18;;;;;;;;;;;;;;;30.28;38.35;102108.26;1747400;82;20253;-73
2021/08/14 06:40:50;;;;;;;;;;;;;;;30.21;38.11;102106.55;1747360;82;20194;-72
2021/08/14 06:43:22;;;;;;;;;;;;;;;30.14;39.06;102103.45;1740553;82;20261;-69
2021/08/14 06:45:55;;;;;;;;;;;;;;;30.09;38.99;102100.00;1726912;82;20613;-70
2021/08/14 06:48:27;;;;;;;;;;;;;;;29.97;38.77;102101.39;1744793;81;20186;-72
2021/08/14 06:50:59;;;;;;;;;;;;;;;30.08;39.65;102096.25;1710553;84;20259;-71
2021/08/14 06:53:31;;;;;;;;;;;;;;;30.40;39.80;102107.41;1737044;83;20290;-72
2021/08/14 06:56:05;;;;;;;;;;;;;;;30.67;38.51;102099.49;1711006;84;20265;-71
2021/08/14 06:58:36;;;;;;;;;;;;;;;30.84;39.11;102099.22;1736918;82;20269;-70
2021/08/14 07:01:08;;;;;;;;;;;;;;;31.00;39.27;102102.39;1710868;84;20257;-71
2021/08/14 07:03:41;;;;;;;;;;;;;;;31.21;38.08;102105.10;1736892;81;20194;-72
2021/08/14 07:06:21;;;;;;;;;;;;;;;31.31;37.32;102102.56;1770177;76;20265;-70
2021/08/14 07:08:53;;;;;;;;;;;;;;;31.39;37.82;102095.81;1874824;76;20626;-72
2021/08/14 07:11:27;;;;;;;;;;;;;;;31.48;38.16;102092.16;1874753;76;20612;-76
2021/08/14 07:13:59;;;;;;;;;;;;;;;31.54;36.41;102100.74;1874490;76;20179;-75
2021/08/14 07:16:31;;;;;;;;;;;;;;;31.53;37.42;102106.88;1874839;76;20251;-77
2021/08/14 07:19:05;;;;;;;;;;;;;;;31.53;36.06;102099.08;1842412;76;20199;-75
2021/08/14 07:21:39;;;;;;;;;;;;;;;31.53;36.15;102098.27;1855502;76;20318;-76
2021/08/14 07:24:12;;;;;;;;;;;;;;;31.57;35.81;102098.59;1852691;76;20278;-76
2021/08/14 07:26:44;;;;;;;;;;;;;;;31.56;35.82;102096.08;1832026;76;20167;-75
2021/08/14 07:29:16;;;;;;;;;;;;;;;31.52;34.85;102093.69;1829447;77;20251;-75
2021/08/14 07:31:47;;;;;;;;;;;;;;;31.41;35.11;102091.96;1870653;76;20258;-78
2021/08/14 07:34:19;;;;;;;;;;;;;;;31.28;35.86;102101.00;1876331;76;20631;-75
2021/08/14 07:36:51;;;;;;;;;;;;;;;31.24;34.67;102093.72;1874002;76;20252;-75
2021/08/14 07:39:23;;;;;;;;;;;;;;;31.07;33.06;102095.45;1874087;76;20283;-73
2021/08/14 07:41:55;;;;;;;;;;;;;;;30.58;33.98;102092.45;1873480;75;20255;-74
2021/08/14 07:44:28;;;;;;;;;;;;;;;30.21;34.26;102089.35;1873763;76;20393;-79
2021/08/14 07:47:02;;;;;;;;;;;;;;;29.85;34.51;102092.20;1870046;75;20275;-75
2021/08/14 07:49:35;;;;;;;;;;;;;;;29.65;34.88;102088.80;1870766;76;21455;-76
2021/08/14 07:52:08;;;;;;;;;;;;;;;29.53;35.01;102086.52;1872907;76;20259;-74
2021/08/14 07:54:40;;;;;;;;;;;;;;;29.30;35.25;102088.08;1864089;76;20271;-80
2021/08/14 07:57:11;;;;;;;;;;;;;;;29.17;36.59;102075.73;1873214;76;20251;-73
2021/08/14 07:59:43;;;;;;;;;;;;;;;29.18;35.44;102079.44;1864029;76;20675;-74
2021/08/14 08:02:14;;;;;;;;;;;;;;;29.07;36.06;102086.20;1870497;76;20348;-78
2021/08/14 08:04:46;;;;;;;;;;;;;;;28.95;35.78;102086.73;1872852;76;20250;-76
2021/08/14 08:07:17;;;;;;;;;;;;;;;28.88;36.33;102075.83;1872094;76;20219;-73
2021/08/14 08:09:50;;;;;;;;;;;;;;;28.84;35.63;102071.98;1872401;76;20247;-72
2021/08/14 08:12:24;;;;;;;;;;;;;;;28.79;35.64;102072.19;1863480;76;20255;-75
2021/08/14 08:14:56;;;;;;;;;;;;;;;28.87;35.79;102076.98;1732534;82;20753;-74
2021/08/14 08:17:27;;;;;;;;;;;;;;;28.85;35.57;102070.78;1730762;83;20615;-74
2021/08/14 08:20:01;;;;;;;;;;;;;;;28.71;35.81;102068.81;1728195;82;20540;-73
2021/08/14 08:22:34;;;;;;;;;;;;;;;28.59;35.83;102074.45;1699455;84;20256;-74
2021/08/14 08:25:07;;;;;;;;;;;;;;;28.50;35.61;102067.95;1705777;82;20195;-74
2021/08/14 08:27:41;;;;;;;;;;;;;;;28.51;34.40;102073.94;1728066;82;20219;-76
2021/08/14 08:30:13;;;;;;;;;;;;;;;28.48;33.82;102068.90;1728535;83;20221;-74
2021/08/14 08:32:45;;;;;;;;;;;;;;;28.47;34.77;102060.08;1761626;76;20636;-73
2021/08/14 08:35:17;;;;;;;;;;;;;;;28.52;34.70;102051.30;1867730;76;20259;-75
2021/08/14 08:37:49;;;;;;;;;;;;;;;28.57;34.48;102059.68;1874486;76;20281;-74
2021/08/14 08:40:21;;;;;;;;;;;;;;;28.44;34.80;102056.47;1856309;76;20273;-75
2021/08/14 08:42:53;;;;;;;;;;;;;;;28.39;35.20;102053.84;1854883;76;20230;-71
2021/08/14 08:45:25;;;;;;;;;;;;;;;28.41;34.51;102051.47;1835724;76;20223;-70
2021/08/14 08:47:57;;;;;;;;;;;;;;;28.43;34.88;102057.66;1848899;76;20243;-73
2021/08/14 08:50:29;;;;;;;;;;;;;;;28.46;34.93;102049.84;1850368;76;20211;-71
2021/08/14 08:53:04;;;;;;;;;;;;;;;28.46;34.41;102048.41;1841871;76;20289;-71
2021/08/14 08:55:33;;;;;;;;;;;;;;;28.37;34.97;102044.75;1830288;77;20232;-73
2021/08/14 08:58:05;;;;;;;;;;;;;;;28.34;35.11;102048.29;1821938;77;20331;-70
2021/08/14 09:00:36;;;;;;;;;;;;;;;28.31;35.02;102041.82;1845656;77;20663;-72
2021/08/14 09:03:11;;;;;;;;;;;;;;;28.29;34.98;102046.20;1852721;76;20258;-70
2021/08/14 09:05:48;;;;;;;;;;;;;;;28.24;35.71;102038.67;1855718;76;20292;-71
2021/08/14 09:08:19;;;;;;;;;;;;;;;28.29;35.96;102039.06;1836234;76;20257;-70
2021/08/14 09:11:07;;;;;;;;;;;;;;;28.30;35.79;102037.29;1846988;76;20246;-72
2021/08/14 09:13:39;;;;;;;;;;;;;;;28.29;35.25;102042.77;1833087;77;20598;-72
2021/08/14 09:16:23;;;;;;;;;;;;;;;28.20;34.97;102022.58;1821663;77;20220;-72
2021/08/14 09:19:00;;;;;;;;;;;;;;;28.11;34.27;102031.20;1837653;78;20249;-73
2021/08/14 09:21:40;;;;;;;;;;;;;;;28.02;34.98;102029.58;1837596;78;20225;-72
2021/08/14 09:24:28;;;;;;;;;;;;;;;27.95;34.61;102028.68;1837864;78;20198;-72
2021/08/14 09:27:00;;;;;;;;;;;;;;;27.91;35.00;102020.57;1837203;78;20277;-72
2021/08/14 09:29:39;;;;;;;;;;;;;;;27.95;35.45;102012.97;1837549;78;20606;-71
2021/08/14 09:32:15;;;;;;;;;;;;;;;28.07;35.55;102018.77;1837732;78;20669;-71
2021/08/14 09:34:47;;;;;;;;;;;;;;;28.15;34.98;102007.90;1837664;78;20346;-71
2021/08/14 09:37:20;;;;;;;;;;;;;;;28.21;35.50;102011.38;1837663;77;20181;-72
2021/08/14 09:40:00;;;;;;;;;;;;;;;28.28;35.78;102013.94;1837763;78;20313;-71
2021/08/14 09:42:32;;;;;;;;;;;;;;;28.30;35.15;102011.56;1837814;77;20602;-72
2021/08/14 09:45:15;;;;;;;;;;;;;;;28.27;35.36;102009.41;1837694;78;20253;-72
2021/08/14 09:47:54;;;;;;;;;;;;;;;28.24;35.19;102004.38;1837673;78;20317;-72
2021/08/14 09:50:22;;;;;;;;;;;;;;;28.24;36.33;102008.66;1837349;78;20201;-71
2021/08/14 09:52:57;;;;;;;;;;;;;;;28.32;35.62;101999.79;1835161;78;20181;-72
2021/08/14 09:55:29;;;;;;;;;;;;;;;28.40;35.66;102002.61;1813238;78;20284;-75
2021/08/14 09:58:01;;;;;;;;;;;;;;;28.42;34.97;102001.66;1837794;78;20246;-72
2021/08/14 10:00:33;;;;;;;;;;;;;;;28.42;35.38;101997.38;1837734;78;20205;-69
2021/08/14 10:03:05;;;;;;;;;;;;;;;28.40;35.31;102001.19;1837829;78;20174;-72
2021/08/14 10:05:38;;;;;;;;;;;;;;;28.33;35.31;101998.02;1837690;78;20249;-71
2021/08/14 10:08:11;;;;;;;;;;;;;;;28.26;35.24;101991.99;1839495;77;20606;-72
2021/08/14 10:10:43;;;;;;;;;;;;;;;28.19;35.57;101993.14;1840523;77;20221;-72
2021/08/14 10:13:18;;;;;;;;;;;;;;;28.14;35.48;101999.09;1837807;78;20321;-72
2021/08/14 10:15:50;;;;;;;;;;;;;;;28.09;35.24;101995.58;1817764;78;20723;-71
2021/08/14 10:18:22;;;;;;;;;;;;;;;28.04;35.08;101993.77;1837946;78;20249;-74
2021/08/14 10:20:54;;;;;;;;;;;;;;;28.01;34.71;101987.91;1837743;78;20258;-72
2021/08/14 10:23:28;;;;;;;;;;;;;;;28.01;35.04;101993.63;1837679;78;20288;-76
2021/08/14 10:26:07;;;;;;;;;;;;;;;28.04;35.14;101973.77;1837886;78;20266;-70
2021/08/14 10:28:47;;;;;;;;;;;;;;;28.11;35.43;101974.62;1837808;78;20181;-72
2021/08/14 10:31:37;;;;;;;;;;;;;;;28.18;35.30;101962.07;1837768;78;20250;-71
2021/08/14 10:34:15;;;;;;;;;;;;;;;28.19;34.74;101963.13;1837760;78;20262;-71
2021/08/14 10:36:48;;;;;;;;;;;;;;;28.18;35.38;101979.22;1837916;78;20186;-73
2021/08/14 10:39:21;;;;;;;;;;;;;;;28.22;34.90;101961.60;1829813;75;20262;-73
2021/08/14 10:41:56;;;;;;;;;;;;;;;28.25;35.00;101956.02;1801568;79;20186;-72
2021/08/14 10:44:44;;;;;;;;;;;;;;;28.28;34.96;101960.20;1787780;80;20249;-72
2021/08/14 10:47:40;;;;;;;;;;;;;;;28.31;34.94;101960.95;1801630;80;20599;-70
2021/08/14 10:50:12;;;;;;;;;;;;;;;28.39;34.39;101951.49;1801547;80;20293;-72
2021/08/14 10:52:44;;;;;;;;;;;;;;;28.42;34.20;101947.34;1795126;78;20334;-72
2021/08/14 10:55:15;;;;;;;;;;;;;;;28.45;34.80;101945.80;1815330;79;20256;-74
2021/08/14 10:57:49;;;;;;;;;;;;;;;28.52;35.06;101954.07;1789443;78;20268;-72
2021/08/14 11:00:25;;;;;;;;;;;;;;;28.61;33.96;101953.99;1812967;79;20590;-73
2021/08/14 11:03:02;;;;;;;;;;;;;;;28.58;33.47;101945.52;1802204;79;20573;-72
2021/08/14 11:05:35;;;;;;;;;;;;;;;28.55;34.01;101950.49;1801647;80;20240;-72
2021/08/14 11:08:27;;;;;;;;;;;;;;;28.56;34.30;101946.44;1801642;79;20223;-71
2021/08/14 11:11:00;;;;;;;;;;;;;;;28.55;35.02;101946.20;1801578;79;20183;-73
2021/08/14 11:13:39;;;;;;;;;;;;;;;28.57;34.30;101957.30;1799926;74;20304;-72
2021/08/14 11:16:12;;;;;;;;;;;;;;;28.57;33.89;101940.99;1770966;81;20243;-71
2021/08/14 11:18:56;;;;;;;;;;;;;;;28.55;34.03;101944.77;1788230;79;20202;-72
2021/08/14 11:21:44;;;;;;;;;;;;;;;28.55;34.15;101939.05;1810080;79;20243;-70
2021/08/14 11:24:37;;;;;;;;;;;;;;;28.56;34.20;101943.58;1809471;79;20167;-71
2021/08/14 11:27:24;;;;;;;;;;;;;;;28.56;33.78;101939.29;1810029;79;20210;-71
2021/08/14 11:29:58;;;;;;;;;;;;;;;28.54;34.45;101930.23;1809928;79;20203;-71
2021/08/14 11:32:30;;;;;;;;;;;;;;;28.56;34.40;101924.17;1810125;79;20247;-72
2021/08/14 11:35:02;;;;;;;;;;;;;;;28.58;34.75;101929.79;1810134;78;20251;-71
2021/08/14 11:37:52;;;;;;;;;;;;;;;28.61;34.22;101916.20;1810181;79;20247;-72
2021/08/14 11:40:28;;;;;;;;;;;;;;;28.63;33.73;101929.58;1804979;79;20187;-70
2021/08/14 11:43:07;;;;;;;;;;;;;;;28.67;33.94;101930.52;1802792;79;20184;-71
2021/08/14 11:45:41;;;;;;;;;;;;;;;28.67;32.77;101931.13;1810219;79;20246;-71
2021/08/14 11:48:14;;;;;;;;;;;;;;;28.59;32.67;101916.31;1807883;79;20298;-70
2021/08/14 11:50:48;;;;;;;;;;;;;;;28.48;33.38;101927.35;1791592;79;20215;-72
2021/08/14 11:53:33;;;;;;;;;;;;;;;28.50;33.40;101914.95;1804065;79;20616;-71
2021/08/14 11:56:13;;;;;;;;;;;;;;;28.54;33.47;101922.23;1809200;79;20330;-76
2021/08/14 11:58:45;;;;;;;;;;;;;;;28.59;33.61;101916.31;1813795;76;20270;-74
2021/08/14 12:01:17;;;;;;;;;;;;;;;28.62;32.86;101919.30;1841295;76;20178;-73
2021/08/14 12:03:59;;;;;;;;;;;;;;;28.61;32.97;101909.66;1840995;77;20303;-75
2021/08/14 12:06:34;;;;;;;;;;;;;;;28.60;33.48;101908.81;1824760;77;20395;-73
2021/08/14 12:09:08;;;;;;;;;;;;;;;28.64;33.25;101898.94;1804604;79;20255;-73
2021/08/14 12:11:40;;;;;;;;;;;;;;;28.67;33.22;101899.06;1824920;79;20221;-72
2021/08/14 12:14:21;;;;;;;;;;;;;;;28.69;33.29;101899.56;1807010;79;20334;-72
2021/08/14 12:17:01;;;;;;;;;;;;;;;28.73;33.60;101903.38;1818487;77;20233;-71
2021/08/14 12:19:32;;;;;;;;;;;;;;;28.79;33.06;101907.68;1798804;79;20290;-73
2021/08/14 12:22:10;;;;;;;;;;;;;;;28.75;33.30;101904.45;1810821;78;20333;-72
2021/08/14 12:24:44;;;;;;;;;;;;;;;28.70;33.69;101895.51;1810153;79;20314;-70
2021/08/14 12:27:28;;;;;;;;;;;;;;;28.70;33.71;101898.37;1817134;77;20178;-69
2021/08/14 12:30:18;;;;;;;;;;;;;;;28.74;33.54;101893.59;1813589;79;20242;-71
2021/08/14 12:32:53;;;;;;;;;;;;;;;28.80;34.16;101892.18;1844656;77;20248;-72
2021/08/14 12:35:27;;;;;;;;;;;;;;;28.86;33.83;101890.77;1860969;75;20188;-70
2021/08/14 12:38:07;;;;;;;;;;;;;;;28.90;33.61;101886.59;1864849;77;20343;-71
2021/08/14 12:40:41;;;;;;;;;;;;;;;28.92;33.50;101882.19;1843186;77;20532;-72
2021/08/14 12:43:18;;;;;;;;;;;;;;;28.96;34.11;101880.34;1822034;79;20316;-74
2021/08/14 12:45:51;;;;;;;;;;;;;;;28.99;33.87;101879.61;1812407;78;20194;-72
2021/08/14 12:48:23;;;;;;;;;;;;;;;29.03;33.65;101885.48;1810614;79;20289;-69
2021/08/14 12:50:56;;;;;;;;;;;;;;;28.98;33.30;101886.53;1814472;79;20278;-70
2021/08/14 12:53:28;;;;;;;;;;;;;;;28.92;33.40;101877.90;1806447;79;20206;-71
2021/08/14 12:56:01;;;;;;;;;;;;;;;28.87;33.80;101875.26;1806051;79;20210;-70
2021/08/14 12:58:35;;;;;;;;;;;;;;;28.88;34.20;101876.96;1808821;79;20548;-71
2021/08/14 13:01:06;;;;;;;;;;;;;;;28.90;33.74;101874.56;1803348;78;20295;-74
2021/08/14 13:03:42;;;;;;;;;;;;;;;28.91;33.68;101876.23;1836477;78;20524;-71
2021/08/14 13:06:13;;;;;;;;;;;;;;;28.94;34.20;101876.12;1837921;78;20255;-75
2021/08/14 13:08:45;;;;;;;;;;;;;;;28.99;33.95;101868.78;1836597;76;20586;-70